Time;durP1;ratioP1;P1;durP2;ratioP2;P2;SDS_P1;SDS_P2;PMS_P1;PMS_P2;Temp;Humidity;BMP_temperature;BMP_pressure;BME280_temperature;BME280_humidity;BME280_pressure;Samples;Min_cycle;Max_cycle;Signal;HPM_P1;HPM_P2
2023/11/29 00:00:59;;;;;;;117.43;6.07;;;;;;;-148.24;100.00;61531.34;5004780;28;20417;-54
2023/11/29 00:03:25;;;;;;;106.30;5.38;;;;;;;-148.24;100.00;61531.34;5006582;28;20497;-55
2023/11/29 00:05:51;;;;;;;77.75;4.03;;;;;;;-148.24;100.00;61531.34;5006796;28;20147;-54
2023/11/29 00:08:17;;;;;;;161.82;8.68;;;;;;;-148.24;100.00;61531.34;5006178;28;20465;-51
2023/11/29 00:10:43;;;;;;;79.18;4.20;;;;;;;-148.24;100.00;61531.34;5006723;28;20037;-52
2023/11/29 00:13:08;;;;;;;83.97;4.43;;;;;;;-148.24;100.00;61531.34;5005403;28;20047;-51
2023/11/29 00:15:34;;;;;;;105.82;5.47;;;;;;;-148.24;100.00;61531.34;5007845;28;20038;-52
2023/11/29 00:17:59;;;;;;;83.97;4.57;;;;;;;-148.24;100.00;61531.34;5008702;28;20435;-52
2023/11/29 00:20:25;;;;;;;96.93;5.30;;;;;;;-148.24;100.00;61531.34;5005987;28;20024;-52
2023/11/29 00:22:50;;;;;;;119.88;6.07;;;;;;;-148.24;100.00;61531.34;5009215;28;20053;-52
2023/11/29 00:25:16;;;;;;;120.72;6.53;;;;;;;-148.24;100.00;61531.34;5006860;28;20295;-52
2023/11/29 00:27:41;;;;;;;90.93;4.63;;;;;;;-148.24;100.00;61531.34;5008270;28;20569;-52
2023/11/29 00:30:07;;;;;;;111.70;5.82;;;;;;;-148.24;100.00;61531.34;5007021;28;20014;-51
2023/11/29 00:32:32;;;;;;;85.18;4.38;;;;;;;-148.24;100.00;61531.34;5006033;28;20026;-52
2023/11/29 00:34:58;;;;;;;116.72;5.80;;;;;;;-148.24;100.00;61531.34;5006718;28;20365;-53
2023/11/29 00:37:23;;;;;;;96.75;4.97;;;;;;;-148.24;100.00;61531.34;5006697;28;20200;-52
2023/11/29 00:39:49;;;;;;;92.95;4.75;;;;;;;-148.24;100.00;61531.34;5005889;28;20557;-52
2023/11/29 00:42:14;;;;;;;131.38;6.82;;;;;;;-148.24;100.00;61531.34;5004605;28;20119;-54
2023/11/29 00:44:39;;;;;;;87.05;4.45;;;;;;;-148.24;100.00;61531.34;5005384;28;20563;-54
2023/11/29 00:47:05;;;;;;;84.45;4.65;;;;;;;-148.24;100.00;61531.34;5006497;28;20037;-54
2023/11/29 00:49:30;;;;;;;104.43;5.53;;;;;;;-148.24;100.00;61531.34;5007820;28;20063;-55
2023/11/29 00:51:55;;;;;;;66.30;3.85;;;;;;;-148.24;100.00;61531.34;5008101;28;20033;-54
2023/11/29 00:54:21;;;;;;;129.73;7.00;;;;;;;-148.24;100.00;61531.34;5004788;28;20515;-54
2023/11/29 00:56:46;;;;;;;110.38;5.65;;;;;;;-148.24;100.00;61531.34;5005149;28;20562;-54
2023/11/29 00:59:12;;;;;;;110.15;5.53;;;;;;;-148.24;100.00;61531.34;5006864;28;20025;-54
2023/11/29 01:01:38;;;;;;;87.40;4.63;;;;;;;-148.24;100.00;61531.34;5005470;28;20498;-52
2023/11/29 01:04:03;;;;;;;114.50;5.72;;;;;;;-148.24;100.00;61531.34;5006100;28;20030;-54
2023/11/29 01:06:30;;;;;;;73.40;3.92;;;;;;;-148.24;100.00;61531.34;5004774;28;20562;-54
2023/11/29 01:08:56;;;;;;;72.90;3.95;;;;;;;-148.24;100.00;61531.34;5007643;28;20465;-54
2023/11/29 01:11:23;;;;;;;134.48;7.32;;;;;;;-148.24;100.00;61531.34;5006193;28;20485;-54
2023/11/29 01:13:49;;;;;;;85.15;4.53;;;;;;;-148.24;100.00;61531.34;5008044;28;20122;-54
2023/11/29 01:16:15;;;;;;;111.28;5.95;;;;;;;-148.24;100.00;61531.34;5005267;28;20125;-54
2023/11/29 01:18:41;;;;;;;79.57;4.35;;;;;;;-148.24;100.00;61531.34;5006900;28;20033;-54
2023/11/29 01:21:11;;;;;;;77.57;4.22;;;;;;;-148.24;100.00;61531.34;5006789;28;20117;-54
2023/11/29 01:23:37;;;;;;;91.50;4.82;;;;;;;-148.24;100.00;61531.34;5005618;28;20091;-54
2023/11/29 01:26:02;;;;;;;73.25;3.95;;;;;;;-148.24;100.00;61531.34;5006764;28;20558;-54
2023/11/29 01:28:27;;;;;;;128.70;7.00;;;;;;;-148.24;100.00;61531.34;5007230;28;20022;-54
2023/11/29 01:30:53;;;;;;;114.63;5.82;;;;;;;-148.24;100.00;61531.34;5004796;28;20631;-54
2023/11/29 01:33:18;;;;;;;99.25;5.22;;;;;;;-148.24;100.00;61531.34;5005029;28;20075;-54
2023/11/29 01:35:43;;;;;;;77.72;3.97;;;;;;;-148.24;100.00;61531.34;5013001;28;21006;-54
2023/11/29 01:38:09;;;;;;;119.32;6.03;;;;;;;-148.24;100.00;61531.34;5005608;28;20019;-54
2023/11/29 01:40:34;;;;;;;76.65;4.00;;;;;;;-148.24;100.00;61531.34;5003723;28;20041;-54
2023/11/29 01:43:00;;;;;;;97.43;4.80;;;;;;;-148.24;100.00;61531.34;5006931;28;20049;-54
2023/11/29 01:45:25;;;;;;;159.90;8.30;;;;;;;-148.24;100.00;61531.34;5002453;28;20041;-54
2023/11/29 01:47:51;;;;;;;74.13;4.00;;;;;;;-148.24;100.00;61531.34;5006920;28;20087;-55
2023/11/29 01:50:20;;;;;;;87.47;4.65;;;;;;;-148.24;100.00;61531.34;5004078;28;20021;-54
2023/11/29 01:52:46;;;;;;;97.07;4.97;;;;;;;-148.24;100.00;61531.34;5004479;28;20517;-54
2023/11/29 01:55:12;;;;;;;81.72;4.47;;;;;;;-148.24;100.00;61531.34;5004949;28;20034;-54
2023/11/29 01:57:40;;;;;;;96.82;4.90;;;;;;;-148.24;100.00;61531.34;5006614;28;20026;-55
2023/11/29 02:00:07;;;;;;;84.65;4.38;;;;;;;-148.24;100.00;61531.34;5007799;28;20026;-54
2023/11/29 02:02:32;;;;;;;80.53;4.22;;;;;;;-148.24;100.00;61531.34;5005071;28;20283;-54
2023/11/29 02:04:57;;;;;;;96.13;4.93;;;;;;;-148.24;100.00;61531.34;5003992;28;20243;-54
2023/11/29 02:07:23;;;;;;;123.78;6.75;;;;;;;-148.24;100.00;61531.34;5004622;28;20030;-51
2023/11/29 02:09:48;;;;;;;74.45;3.95;;;;;;;-148.24;100.00;61531.34;5007247;28;20029;-51
2023/11/29 02:12:14;;;;;;;103.75;5.20;;;;;;;-148.24;100.00;61531.34;5003420;28;20064;-52
2023/11/29 02:14:41;;;;;;;65.15;3.58;;;;;;;-148.24;100.00;61531.34;5004669;28;20301;-51
2023/11/29 02:17:07;;;;;;;70.40;3.90;;;;;;;-148.24;100.00;61531.34;5006701;28;20558;-52
2023/11/29 02:19:32;;;;;;;172.07;8.88;;;;;;;-148.24;100.00;61531.34;5002052;28;20037;-53
2023/11/29 02:21:58;;;;;;;79.95;4.20;;;;;;;-148.24;100.00;61531.34;5006725;28;20033;-53
2023/11/29 02:24:28;;;;;;;87.88;4.82;;;;;;;-148.24;100.00;61531.34;5007332;28;20029;-52
2023/11/29 02:26:55;;;;;;;110.15;5.32;;;;;;;-148.24;100.00;61531.34;5002954;28;20048;-52
2023/11/29 02:29:20;;;;;;;153.85;8.10;;;;;;;-148.24;100.00;61531.34;5004342;28;20018;-53
2023/11/29 02:31:46;;;;;;;91.57;4.90;;;;;;;-148.24;100.00;61531.34;5002807;28;20033;-53
2023/11/29 02:34:11;;;;;;;75.00;4.10;;;;;;;-148.24;100.00;61531.34;5005702;28;20064;-53
2023/11/29 02:36:36;;;;;;;70.55;3.80;;;;;;;-148.24;100.00;61531.34;5005714;28;20438;-52
2023/11/29 02:39:03;;;;;;;122.18;5.88;;;;;;;-148.24;100.00;61531.34;5007191;28;20025;-53
2023/11/29 02:41:28;;;;;;;130.73;7.03;;;;;;;-148.24;100.00;61531.34;5002702;28;20099;-53
2023/11/29 02:43:55;;;;;;;80.10;4.15;;;;;;;-148.24;100.00;61531.34;5004024;28;20330;-53
2023/11/29 02:46:21;;;;;;;153.30;8.13;;;;;;;-148.24;100.00;61531.34;5000665;28;20124;-52
2023/11/29 02:48:46;;;;;;;80.70;4.22;;;;;;;-148.24;100.00;61531.34;5004770;28;20529;-53
2023/11/29 02:51:12;;;;;;;76.18;3.83;;;;;;;-148.24;100.00;61531.34;5005559;28;20521;-52
2023/11/29 02:53:37;;;;;;;101.57;5.28;;;;;;;-148.24;100.00;61531.34;5004599;28;20022;-53
2023/11/29 02:56:06;;;;;;;81.18;4.18;;;;;;;-148.24;100.00;61531.34;5004615;28;20102;-52
2023/11/29 02:58:31;;;;;;;133.20;6.93;;;;;;;-148.24;100.00;61531.34;5003631;28;20045;-53
2023/11/29 03:00:57;;;;;;;101.18;5.35;;;;;;;-148.24;100.00;61531.34;5004835;28;20038;-53
2023/11/29 03:03:22;;;;;;;96.57;5.05;;;;;;;-148.24;100.00;61531.34;5005581;28;20022;-52
2023/11/29 03:05:49;;;;;;;72.32;3.95;;;;;;;-148.24;100.00;61531.34;5002387;28;20057;-53
2023/11/29 03:08:14;;;;;;;93.28;4.95;;;;;;;-148.24;100.00;61531.34;5005012;28;20153;-52
2023/11/29 03:10:39;;;;;;;81.03;4.30;;;;;;;-148.24;100.00;61531.34;5005593;28;20037;-52
2023/11/29 03:13:05;;;;;;;94.57;4.75;;;;;;;-148.24;100.00;61531.34;5004660;28;20026;-53
2023/11/29 03:15:30;;;;;;;171.77;8.68;;;;;;;-148.24;100.00;61531.34;5003493;28;20021;-53
2023/11/29 03:17:55;;;;;;;99.90;5.00;;;;;;;-148.24;100.00;61531.34;5006206;28;20080;-53
2023/11/29 03:20:21;;;;;;;141.20;6.90;;;;;;;-148.24;100.00;61531.34;5002133;28;20454;-53
2023/11/29 03:22:46;;;;;;;70.10;3.88;;;;;;;-148.24;100.00;61531.34;5005787;28;20072;-52
2023/11/29 03:25:11;;;;;;;73.22;4.07;;;;;;;-148.24;100.00;61531.34;5004308;28;20123;-53
2023/11/29 03:27:37;;;;;;;104.50;5.53;;;;;;;-148.24;100.00;61531.34;5001659;28;20040;-52
2023/11/29 03:30:02;;;;;;;89.20;4.32;;;;;;;-148.24;100.00;61531.34;5007325;28;20045;-52
2023/11/29 03:32:28;;;;;;;128.27;6.63;;;;;;;-148.24;100.00;61531.34;5008359;28;20034;-52
2023/11/29 03:34:54;;;;;;;110.60;5.68;;;;;;;-148.24;100.00;61531.34;5006843;28;20028;-53
2023/11/29 03:37:20;;;;;;;77.18;4.10;;;;;;;-148.24;100.00;61531.34;5008717;28;20041;-53
2023/11/29 03:39:45;;;;;;;91.82;4.82;;;;;;;-148.24;100.00;61531.34;5008662;28;20017;-52
2023/11/29 03:42:11;;;;;;;124.13;6.13;;;;;;;-148.24;100.00;61531.34;5006453;28;20033;-52
2023/11/29 03:44:36;;;;;;;131.48;6.93;;;;;;;-148.24;100.00;61531.34;5007724;28;20032;-52
2023/11/29 03:47:02;;;;;;;85.60;4.55;;;;;;;-148.24;100.00;61531.34;5007887;28;20044;-53
2023/11/29 03:49:27;;;;;;;168.07;8.60;;;;;;;-148.24;100.00;61531.34;5006545;28;20042;-53
2023/11/29 03:51:53;;;;;;;81.45;4.22;;;;;;;-148.24;100.00;61531.34;5009130;28;20033;-53
2023/11/29 03:54:18;;;;;;;49.80;2.95;;;;;;;-148.24;100.00;61531.34;5009445;28;20029;-53
2023/11/29 03:56:43;;;;;;;116.20;5.70;;;;;;;-148.24;100.00;61531.34;5008709;28;20498;-52
2023/11/29 03:59:09;;;;;;;99.55;5.05;;;;;;;-148.24;100.00;61531.34;5008485;28;20159;-53
2023/11/29 04:01:34;;;;;;;138.40;7.25;;;;;;;-148.24;100.00;61531.34;5006113;28;20042;-53
2023/11/29 04:04:00;;;;;;;86.85;4.60;;;;;;;-148.24;100.00;61531.34;5007496;28;20044;-52
2023/11/29 04:06:27;;;;;;;106.50;5.38;;;;;;;-148.24;100.00;61531.34;5007522;28;20038;-53
2023/11/29 04:08:53;;;;;;;102.68;5.22;;;;;;;-148.24;100.00;61531.34;5007613;28;20040;-53
2023/11/29 04:11:19;;;;;;;71.80;3.60;;;;;;;-148.24;100.00;61531.34;5006666;28;20033;-52
2023/11/29 04:13:44;;;;;;;81.20;4.28;;;;;;;-148.24;100.00;61531.34;5008146;28;20032;-53
2023/11/29 04:16:27;;;;;;;110.72;5.40;;;;;;;-148.24;100.00;61531.34;5009299;28;20589;-53
2023/11/29 04:18:53;;;;;;;81.90;4.47;;;;;;;-148.24;100.00;61531.34;5006968;28;20106;-53
2023/11/29 04:21:30;;;;;;;90.28;4.78;;;;;;;-148.24;100.00;61531.34;5007314;28;20417;-52
2023/11/29 04:23:56;;;;;;;75.15;3.97;;;;;;;-148.24;100.00;61531.34;5022942;28;20031;-52
2023/11/29 04:26:32;;;;;;;88.65;4.65;;;;;;;-148.24;100.00;61531.34;5005106;28;20037;-52
2023/11/29 04:29:03;;;;;;;88.35;4.65;;;;;;;-148.24;100.00;61531.34;5008965;28;20030;-53
2023/11/29 04:31:30;;;;;;;149.00;8.10;;;;;;;-148.24;100.00;61531.34;5008493;28;20100;-53
2023/11/29 04:33:56;;;;;;;111.50;5.53;;;;;;;-148.24;100.00;61531.34;5006478;28;20022;-53
2023/11/29 04:36:21;;;;;;;91.13;4.40;;;;;;;-148.24;100.00;61531.34;5006225;28;20460;-52
2023/11/29 04:38:52;;;;;;;82.90;4.10;;;;;;;-148.24;100.00;61531.34;5007255;28;20056;-53
2023/11/29 04:41:17;;;;;;;98.47;5.15;;;;;;;-148.24;100.00;61531.34;5006512;28;20042;-52
2023/11/29 04:43:43;;;;;;;114.15;5.40;;;;;;;-148.24;100.00;61531.34;5008010;28;20432;-51
2023/11/29 04:46:09;;;;;;;110.80;5.22;;;;;;;-148.24;100.00;61531.34;5005321;28;20033;-52
2023/11/29 04:48:35;;;;;;;133.38;6.85;;;;;;;-148.24;100.00;61531.34;5007757;28;20120;-52
2023/11/29 04:51:01;;;;;;;95.90;5.03;;;;;;;-148.24;100.00;61531.34;5005399;28;20564;-52
2023/11/29 04:53:27;;;;;;;172.55;8.45;;;;;;;-148.24;100.00;61531.34;5006116;28;20030;-53
2023/11/29 04:55:52;;;;;;;78.00;4.18;;;;;;;-148.24;100.00;61531.34;5005625;28;20048;-53
2023/11/29 04:58:19;;;;;;;85.53;4.22;;;;;;;-148.24;100.00;61531.34;5007999;28;20014;-52
2023/11/29 05:00:46;;;;;;;133.85;6.25;;;;;;;-148.24;100.00;61531.34;5006501;28;20041;-52
2023/11/29 05:03:11;;;;;;;94.57;4.60;;;;;;;-148.24;100.00;61531.34;5006760;28;20052;-53
2023/11/29 05:05:37;;;;;;;117.53;5.95;;;;;;;-148.24;100.00;61531.34;5003161;28;20758;-52
2023/11/29 05:08:02;;;;;;;94.45;4.78;;;;;;;-148.24;100.00;61531.34;5005787;28;20243;-52
2023/11/29 05:10:28;;;;;;;138.13;7.30;;;;;;;-148.24;100.00;61531.34;5004682;28;20041;-53
2023/11/29 05:12:53;;;;;;;100.38;5.28;;;;;;;-148.24;100.00;61531.34;5006821;28;20077;-53
2023/11/29 05:15:19;;;;;;;122.55;5.88;;;;;;;8.63;100.00;96748.72;5004180;28;20563;-52
2023/11/29 05:17:45;;;;;;;75.55;4.18;;;;;;;-3.62;100.00;96973.88;5004409;28;20144;-52
2023/11/29 05:20:11;;;;;;;125.93;5.85;;;;;;;-3.62;100.00;96973.88;5004222;28;20026;-53
2023/11/29 05:22:36;;;;;;;126.88;6.38;;;;;;;-3.18;100.00;96972.84;5005404;28;20104;-52
2023/11/29 05:25:03;;;;;;;116.60;5.53;;;;;;;-3.36;100.00;96981.56;5007539;28;20172;-52
2023/11/29 05:27:29;;;;;;;152.70;7.82;;;;;;;-3.55;100.00;96974.97;5006736;28;20092;-52
2023/11/29 05:29:54;;;;;;;82.45;4.35;;;;;;;-3.75;100.00;96980.19;5006255;28;20099;-52
2023/11/29 05:32:20;;;;;;;86.00;4.30;;;;;;;-3.88;100.00;96978.88;5007846;28;20037;-52
2023/11/29 05:34:45;;;;;;;115.85;5.78;;;;;;;-3.80;100.00;96972.41;5003326;28;20234;-53
2023/11/29 05:37:11;;;;;;;103.15;5.03;;;;;;;-3.59;100.00;96980.75;5005329;28;20048;-53
2023/11/29 05:39:36;;;;;;;124.50;6.10;;;;;;;-3.28;100.00;96976.75;5005388;28;20068;-52
2023/11/29 05:42:05;;;;;;;140.23;6.70;;;;;;;-3.08;100.00;96974.88;5004741;28;20026;-52
2023/11/29 05:44:34;;;;;;;147.18;7.55;;;;;;;-2.90;100.00;96979.75;5004687;28;20382;-53
2023/11/29 05:47:02;;;;;;;83.25;4.25;;;;;;;-2.80;100.00;96980.03;5004497;28;20260;-52
2023/11/29 05:49:28;;;;;;;123.72;6.28;;;;;;;-2.76;100.00;96977.66;5002093;28;20100;-52
2023/11/29 05:51:53;;;;;;;101.50;5.03;;;;;;;-2.87;100.00;96973.88;5004316;28;20033;-53
2023/11/29 05:54:19;;;;;;;99.45;5.05;;;;;;;-2.57;100.00;96973.16;5005408;28;20018;-52
2023/11/29 05:56:45;;;;;;;89.78;4.85;;;;;;;-2.42;100.00;96970.22;5004309;28;20043;-53
2023/11/29 05:59:11;;;;;;;104.90;5.38;;;;;;;-2.39;100.00;96977.97;5005832;28;20112;-52
2023/11/29 06:01:37;;;;;;;113.97;5.75;;;;;;;-2.36;100.00;96967.00;5005657;28;20042;-52
2023/11/29 06:04:03;;;;;;;92.38;4.93;;;;;;;-2.33;100.00;96972.22;5005025;28;20057;-52
2023/11/29 06:06:30;;;;;;;127.10;6.50;;;;;;;-2.38;100.00;96973.72;5002751;28;20045;-53
2023/11/29 06:08:55;;;;;;;131.02;6.35;;;;;;;-2.31;100.00;96974.81;5005418;28;20448;-52
2023/11/29 06:11:20;;;;;;;89.72;4.70;;;;;;;-2.22;100.00;96973.38;5005227;28;20405;-53
2023/11/29 06:13:46;;;;;;;111.18;5.35;;;;;;;-2.32;100.00;96967.97;5005399;28;20036;-52
2023/11/29 06:16:11;;;;;;;98.85;5.13;;;;;;;-2.21;100.00;96969.16;5007195;28;20037;-52
2023/11/29 06:18:38;;;;;;;133.95;7.25;;;;;;;-2.23;100.00;96974.22;5005820;28;20041;-52
2023/11/29 06:21:04;;;;;;;108.50;5.13;;;;;;;-2.02;100.00;96973.13;5003093;28;20026;-53
2023/11/29 06:23:30;;;;;;;148.43;7.63;;;;;;;-1.98;100.00;96968.97;5003153;28;20052;-52
2023/11/29 06:25:55;;;;;;;82.82;4.43;;;;;;;-1.92;100.00;96968.31;5005132;28;20494;-53
2023/11/29 06:28:21;;;;;;;94.80;4.75;;;;;;;-1.81;100.00;96977.16;5005196;28;20042;-52
2023/11/29 06:30:46;;;;;;;112.95;5.75;;;;;;;-1.99;100.00;96970.69;5003781;28;20598;-53
2023/11/29 06:33:12;;;;;;;92.40;4.80;;;;;;;-2.04;100.00;96963.72;5003761;28;20028;-52
2023/11/29 06:35:37;;;;;;;134.25;7.20;;;;;;;-1.97;100.00;96965.59;5005131;28;20037;-53
2023/11/29 06:38:02;;;;;;;118.90;5.78;;;;;;;-2.01;100.00;96968.91;5006182;28;20629;-52
2023/11/29 06:40:28;;;;;;;89.22;4.53;;;;;;;-1.92;100.00;96965.75;5004953;28;20038;-53
2023/11/29 06:42:53;;;;;;;96.60;5.28;;;;;;;-1.88;100.00;96970.13;5002982;28;20627;-51
2023/11/29 06:45:19;;;;;;;97.30;4.97;;;;;;;-1.68;100.00;96967.31;5005307;28;20145;-53
2023/11/29 06:47:48;;;;;;;142.07;7.57;;;;;;;-1.61;100.00;96964.97;5003319;28;20049;-53
2023/11/29 06:50:14;;;;;;;114.07;5.78;;;;;;;-1.73;100.00;96970.59;5011348;28;20642;-53
2023/11/29 06:52:43;;;;;;;142.10;7.32;;;;;;;-1.83;100.00;96976.22;5004631;28;20034;-53
2023/11/29 06:55:10;;;;;;;85.15;4.60;;;;;;;-1.70;100.00;96977.44;5003860;28;20032;-52
2023/11/29 06:57:35;;;;;;;153.90;7.47;;;;;;;-1.66;100.00;96969.06;5003696;28;20026;-53
2023/11/29 07:00:08;;;;;;;79.40;4.22;;;;;;;-1.70;100.00;96973.19;5003447;28;20025;-53
2023/11/29 07:02:34;;;;;;;192.18;9.77;;;;;;;-1.81;100.00;96968.63;5002764;28;20197;-53
2023/11/29 07:04:59;;;;;;;97.70;5.00;;;;;;;-1.79;100.00;96969.53;5007406;28;20030;-53
2023/11/29 07:07:25;;;;;;;95.85;4.85;;;;;;;-1.75;100.00;96967.09;5008448;28;20105;-53
2023/11/29 07:09:52;;;;;;;130.75;6.25;;;;;;;-1.55;100.00;96966.81;5006833;28;20065;-53
2023/11/29 07:12:18;;;;;;;59.70;3.42;;;;;;;-1.42;100.00;96956.97;5011324;28;20064;-53
2023/11/29 07:14:43;;;;;;;148.40;7.90;;;;;;;-1.33;100.00;96954.66;5007735;28;20793;-53
2023/11/29 07:17:09;;;;;;;134.48;6.55;;;;;;;-1.38;100.00;96957.06;5007724;28;20108;-53
2023/11/29 07:19:34;;;;;;;121.15;6.65;;;;;;;-1.49;100.00;96953.38;5007950;28;20041;-53
2023/11/29 07:22:00;;;;;;;108.18;5.53;;;;;;;-1.45;100.00;96958.59;5008073;28;20033;-53
2023/11/29 07:24:25;;;;;;;105.95;5.30;;;;;;;-1.47;100.00;96959.38;5008768;28;20032;-53
2023/11/29 07:26:51;;;;;;;105.47;5.30;;;;;;;-1.50;100.00;96957.59;5006073;28;20037;-53
2023/11/29 07:29:16;;;;;;;117.47;5.82;;;;;;;-1.23;100.00;96958.31;5008401;28;20469;-53
2023/11/29 07:31:46;;;;;;;169.38;8.80;;;;;;;-1.11;100.00;96955.22;5004923;28;20037;-53
2023/11/29 07:34:11;;;;;;;96.95;4.93;;;;;;;-1.03;100.00;96948.63;5008214;28;20017;-53
2023/11/29 07:36:37;;;;;;;157.65;8.15;;;;;;;-0.64;100.00;96953.84;5006372;28;20460;-53
2023/11/29 07:39:03;;;;;;;117.68;5.88;;;;;;;-0.78;100.00;96949.22;5005458;28;20566;-53
2023/11/29 07:41:29;;;;;;;80.32;4.35;;;;;;;-0.70;100.00;96946.88;5008042;28;20033;-53
2023/11/29 07:43:54;;;;;;;111.50;5.78;;;;;;;-0.42;100.00;96948.41;5006646;28;20017;-53
2023/11/29 07:46:20;;;;;;;71.57;3.90;;;;;;;-0.62;100.00;96953.03;5006793;28;20042;-53
2023/11/29 07:48:46;;;;;;;150.07;8.05;;;;;;;-0.55;100.00;96956.59;5006406;28;20403;-53
2023/11/29 07:51:11;;;;;;;115.97;5.85;;;;;;;-0.79;100.00;96968.81;5006842;28;20045;-53
2023/11/29 07:53:36;;;;;;;153.48;8.10;;;;;;;-0.84;100.00;96972.94;5006975;28;20616;-53
2023/11/29 07:56:03;;;;;;;86.45;4.47;;;;;;;-1.02;100.00;96965.66;5008277;28;20048;-53
2023/11/29 07:58:29;;;;;;;99.95;5.22;;;;;;;-0.98;100.00;96969.16;5009077;28;20030;-54
2023/11/29 08:00:54;;;;;;;86.05;4.53;;;;;;;-0.84;100.00;96970.38;5007658;28;20547;-53
2023/11/29 08:03:19;;;;;;;59.13;3.25;;;;;;;-0.71;100.00;96966.44;5009658;28;20149;-53
2023/11/29 08:05:45;;;;;;;130.02;6.90;;;;;;;-0.56;100.00;96960.00;5011187;28;20139;-53
2023/11/29 08:08:10;;;;;;;49.47;2.75;;;;;;;-0.35;100.00;96972.41;5014806;28;20349;-53
2023/11/29 08:10:36;;;;;;;107.05;6.05;;;;;;;-0.31;100.00;96966.53;5011186;28;20034;-53
2023/11/29 08:13:01;;;;;;;98.90;5.15;;;;;;;-0.26;100.00;96966.63;5011127;28;20025;-53
2023/11/29 08:15:30;;;;;;;73.45;4.03;;;;;;;-0.36;100.00;96962.13;5011135;28;20091;-55
2023/11/29 08:17:55;;;;;;;69.38;3.80;;;;;;;-0.38;100.00;96963.81;5010356;28;20104;-54
2023/11/29 08:20:22;;;;;;;78.72;4.25;;;;;;;-0.46;100.00;96972.16;5011161;28;20596;-54
2023/11/29 08:22:47;;;;;;;80.25;4.35;;;;;;;-0.53;100.00;96962.59;5011279;28;20026;-53
2023/11/29 08:25:13;;;;;;;54.90;3.17;;;;;;;-0.31;100.00;96958.00;5009699;28;20029;-54
2023/11/29 08:27:38;;;;;;;124.93;6.60;;;;;;;-0.48;100.00;96955.06;5009757;28;20025;-53
2023/11/29 08:30:05;;;;;;;74.45;4.20;;;;;;;-0.45;100.00;96961.09;5009652;28;20021;-53
2023/11/29 08:32:30;;;;;;;64.30;3.95;;;;;;;-0.28;100.00;96953.84;5010420;28;20042;-54
2023/11/29 08:34:56;;;;;;;70.45;3.85;;;;;;;-0.20;100.00;96946.34;5010283;28;20026;-53
2023/11/29 08:37:21;;;;;;;57.42;3.22;;;;;;;0.06;100.00;96940.94;5011588;28;20038;-53
2023/11/29 08:39:47;;;;;;;112.05;5.85;;;;;;;-0.07;100.00;96941.50;5010367;28;20236;-53
2023/11/29 08:42:12;;;;;;;72.05;3.83;;;;;;;0.21;100.00;96942.94;5011395;28;20037;-53
2023/11/29 08:44:38;;;;;;;118.45;6.63;;;;;;;0.10;100.00;96935.06;5008860;28;20599;-54
2023/11/29 08:47:03;;;;;;;85.53;4.63;;;;;;;0.06;100.00;96940.94;5009900;28;20037;-54
2023/11/29 08:49:29;;;;;;;66.40;3.67;;;;;;;0.10;100.00;96939.28;5010086;28;20045;-53
2023/11/29 08:51:55;;;;;;;60.08;3.47;;;;;;;0.22;100.00;96948.94;5010300;28;20561;-53
2023/11/29 08:54:22;;;;;;;85.63;4.47;;;;;;;0.26;100.00;96937.94;5011037;28;20418;-54
2023/11/29 08:56:47;;;;;;;100.95;6.20;;;;;;;0.10;100.00;96942.72;5008805;28;20062;-53
2023/11/29 08:59:13;;;;;;;56.40;3.35;;;;;;;0.30;100.00;96942.25;5010241;28;20145;-54
2023/11/29 09:01:38;;;;;;;134.27;7.03;;;;;;;0.18;100.00;96949.69;5010902;28;20041;-53
2023/11/29 09:04:06;;;;;;;83.00;4.30;;;;;;;0.21;100.00;96934.41;5011793;28;20021;-53
2023/11/29 09:06:31;;;;;;;67.57;3.75;;;;;;;0.42;100.00;96939.09;5011421;28;20528;-54
2023/11/29 09:08:57;;;;;;;92.20;5.00;;;;;;;0.16;100.00;96941.13;5010582;28;20060;-53
2023/11/29 09:11:22;;;;;;;56.67;3.20;;;;;;;0.16;100.00;96928.34;5009022;28;20029;-53
2023/11/29 09:13:48;;;;;;;94.85;5.15;;;;;;;0.39;100.00;96928.81;5009937;28;20037;-53
2023/11/29 09:16:14;;;;;;;79.93;4.22;;;;;;;0.17;100.00;96932.59;5012686;28;20800;-53
2023/11/29 09:18:39;;;;;;;63.28;3.80;;;;;;;0.26;100.00;96930.25;5009223;28;20033;-54
2023/11/29 09:21:05;;;;;;;61.72;3.50;;;;;;;0.41;100.00;96923.72;5011277;28;20037;-54
2023/11/29 09:23:32;;;;;;;70.88;3.83;;;;;;;0.51;100.00;96930.72;5010573;28;20037;-54
2023/11/29 09:25:58;;;;;;;60.55;3.45;;;;;;;0.50;100.00;96923.91;5008270;28;20183;-54
2023/11/29 09:28:24;;;;;;;65.78;3.47;;;;;;;0.18;100.00;96924.13;5011233;28;20504;-53
2023/11/29 09:30:49;;;;;;;130.40;7.05;;;;;;;0.38;100.00;96920.25;5007589;28;20041;-54
2023/11/29 09:33:15;;;;;;;65.65;3.55;;;;;;;0.47;100.00;96911.03;5008709;28;20021;-54
2023/11/29 09:35:42;;;;;;;122.15;6.57;;;;;;;0.49;100.00;96912.78;5008263;28;20038;-54
2023/11/29 09:38:08;;;;;;;71.13;4.07;;;;;;;0.28;100.00;96918.34;5008895;28;20557;-54
2023/11/29 09:40:33;;;;;;;56.03;3.38;;;;;;;0.40;100.00;96904.09;5012235;28;20034;-53
2023/11/29 09:42:59;;;;;;;80.90;4.28;;;;;;;0.52;100.00;96900.06;5007252;28;20072;-53
2023/11/29 09:45:27;;;;;;;66.95;3.80;;;;;;;0.82;100.00;96905.69;5009472;28;20762;-54
2023/11/29 09:47:54;;;;;;;116.57;6.55;;;;;;;0.64;100.00;96898.56;5008729;28;20128;-54
2023/11/29 09:50:19;;;;;;;105.85;5.55;;;;;;;0.88;100.00;96905.81;5007957;28;20033;-53
2023/11/29 09:52:46;;;;;;;90.38;5.05;;;;;;;0.95;100.00;96895.69;5008005;28;20338;-53
2023/11/29 09:55:12;;;;;;;56.47;3.15;;;;;;;0.97;100.00;96889.75;5008506;28;20060;-53
2023/11/29 09:57:37;;;;;;;64.72;3.88;;;;;;;0.90;100.00;96886.22;5009289;28;20117;-53
2023/11/29 10:00:10;;;;;;;59.67;3.33;;;;;;;0.89;100.00;96894.75;5008099;28;20028;-54
2023/11/29 10:02:38;;;;;;;67.65;3.80;;;;;;;-0.12;100.00;96889.41;5008162;28;20105;-54
2023/11/29 10:05:03;;;;;;;68.65;3.63;;;;;;;-0.18;100.00;96887.59;5008896;28;20120;-54
2023/11/29 10:07:29;;;;;;;67.88;3.45;;;;;;;-0.23;100.00;96877.25;5008442;28;20136;-53
2023/11/29 10:10:05;;;;;;;120.05;6.60;;;;;;;-0.24;100.00;96880.66;5007256;28;20540;-53
2023/11/29 10:12:30;;;;;;;32.17;1.98;;;;;;;-0.17;100.00;96879.09;5010051;28;20221;-53
2023/11/29 10:14:56;;;;;;;120.88;6.40;;;;;;;-0.31;100.00;96868.56;5007192;28;20044;-54
2023/11/29 10:17:21;;;;;;;64.75;3.72;;;;;;;-0.12;100.00;96864.69;5008639;28;20033;-54
2023/11/29 10:19:47;;;;;;;104.50;5.65;;;;;;;-0.14;100.00;96867.22;5008967;28;20029;-53
2023/11/29 10:22:16;;;;;;;86.95;4.25;;;;;;;-0.12;100.00;96861.31;5006574;28;20066;-53
2023/11/29 10:24:42;;;;;;;88.55;4.75;;;;;;;-0.31;100.00;96860.91;5008145;28;20021;-54
2023/11/29 10:27:08;;;;;;;56.70;3.33;;;;;;;-0.20;100.00;96866.22;5007510;28;20408;-53
2023/11/29 10:29:34;;;;;;;102.57;5.40;;;;;;;0.01;100.00;96863.28;5008011;28;20417;-53
2023/11/29 10:32:03;;;;;;;72.15;3.80;;;;;;;0.62;100.00;96857.59;5007333;28;20034;-53
2023/11/29 10:34:32;;;;;;;58.13;3.50;;;;;;;1.13;100.00;96854.16;5016457;28;20021;-54
2023/11/29 10:36:58;;;;;;;134.85;7.63;;;;;;;0.98;100.00;96852.22;5006022;28;20553;-54
2023/11/29 10:39:28;;;;;;;71.88;3.85;;;;;;;1.00;100.00;96851.41;5008803;28;20120;-54
2023/11/29 10:41:58;;;;;;;115.10;6.18;;;;;;;1.15;100.00;96861.03;5008138;28;20042;-54
2023/11/29 10:44:39;;;;;;;56.50;3.42;;;;;;;1.53;100.00;96859.03;5008106;28;20017;-53
2023/11/29 10:47:29;;;;;;;99.78;5.30;;;;;;;1.79;100.00;96858.53;5008238;28;20593;-53
2023/11/29 10:50:01;;;;;;;111.35;6.65;;;;;;;2.35;100.00;96856.63;5008242;28;20034;-54
2023/11/29 10:52:27;;;;;;;71.18;4.07;;;;;;;2.28;100.00;96855.69;5009506;28;20038;-54
2023/11/29 10:54:53;;;;;;;71.25;3.95;;;;;;;2.47;100.00;96843.94;5008084;28;20037;-54
2023/11/29 10:57:26;;;;;;;49.33;3.20;;;;;;;2.38;100.00;96854.09;5006547;28;20360;-54
2023/11/29 11:00:00;;;;;;;105.65;6.55;;;;;;;1.84;100.00;96853.44;5009194;28;20029;-53
2023/11/29 11:02:30;;;;;;;42.60;2.63;;;;;;;1.89;100.00;96850.09;5008503;28;20200;-54